createdAt,value
2016-12-13T00:00:07.325Z,20.38
2016-12-13T00:01:06.986Z,20.4
2016-12-13T00:02:06.970Z,20.42
2016-12-13T00:03:07.273Z,20.41
2016-12-13T00:04:06.938Z,20.35
2016-12-13T00:05:07.241Z,20.33
2016-12-13T00:06:07.221Z,20.35
2016-12-13T00:07:07.206Z,20.41
2016-12-13T00:08:07.187Z,20.34
2016-12-13T00:09:06.858Z,20.31
2016-12-13T00:10:07.157Z,20.35
2016-12-13T00:11:07.162Z,20.4
2016-12-13T00:12:07.126Z,20.4
2016-12-13T00:13:06.792Z,20.37
2016-12-13T00:14:06.770Z,20.46
2016-12-13T00:15:07.073Z,20.42
2016-12-13T00:16:06.744Z,20.46
2016-12-13T00:17:07.043Z,20.44
2016-12-13T00:18:07.029Z,20.42
2016-12-13T00:19:06.696Z,20.5
2016-12-13T00:20:06.691Z,20.53
2016-12-13T00:21:06.978Z,20.48
2016-12-13T00:22:06.969Z,20.48
2016-12-13T00:23:06.946Z,20.42
2016-12-13T00:24:06.927Z,20.42
2016-12-13T00:25:06.913Z,20.44
2016-12-13T00:26:06.903Z,20.46
2016-12-13T00:27:06.565Z,20.41
2016-12-13T00:28:06.865Z,20.42
2016-12-13T00:29:06.540Z,20.53
2016-12-13T00:30:06.533Z,20.51
2016-12-13T00:31:06.816Z,20.46
2016-12-13T00:32:06.799Z,20.5
2016-12-13T00:33:06.788Z,20.5
2016-12-13T00:34:06.458Z,20.46
2016-12-13T00:35:06.757Z,20.44
2016-12-13T00:36:06.736Z,20.42
2016-12-13T00:37:06.409Z,20.44
2016-12-13T00:38:06.708Z,20.44
2016-12-13T00:39:06.382Z,20.42
2016-12-13T00:40:06.677Z,20.41
2016-12-13T00:41:06.338Z,20.44
2016-12-13T00:42:06.641Z,20.4
2016-12-13T00:43:05.991Z,20.34
2016-12-13T00:44:06.610Z,20.42
2016-12-13T00:45:06.279Z,20.41
2016-12-13T00:46:06.258Z,20.31
2016-12-13T00:47:06.241Z,20.38
2016-12-13T00:48:06.232Z,20.4
2016-12-13T00:49:06.531Z,20.37
2016-12-13T00:50:06.517Z,20.35
2016-12-13T00:51:06.494Z,20.31
2016-12-13T00:52:06.479Z,20.33
2016-12-13T00:53:06.144Z,20.34
2016-12-13T00:54:06.442Z,20.33
2016-12-13T00:55:06.117Z,20.34
2016-12-13T00:56:06.100Z,20.26
2016-12-13T00:57:06.403Z,20.26
2016-12-13T00:58:06.380Z,20.3
2016-12-13T00:59:06.369Z,20.33
2016-12-13T01:00:06.349Z,20.34
2016-12-13T01:01:06.018Z,20.27
2016-12-13T01:02:06.317Z,20.3
2016-12-13T01:03:06.298Z,20.3
2016-12-13T01:04:06.279Z,20.26
2016-12-13T01:05:05.950Z,20.19
2016-12-13T01:06:06.252Z,20.31
2016-12-13T01:07:06.229Z,20.2
2016-12-13T01:08:05.901Z,20.2
2016-12-13T01:09:06.200Z,20.22
2016-12-13T01:10:05.556Z,20.19
2016-12-13T01:11:06.170Z,20.19
2016-12-13T01:12:05.839Z,20.31
2016-12-13T01:13:05.839Z,20.25
2016-12-13T01:14:05.799Z,20.25
2016-12-13T01:15:06.100Z,20.16
2016-12-13T01:16:06.096Z,20.23
2016-12-13T01:17:06.077Z,20.16
2016-12-13T01:18:05.746Z,20.22
2016-12-13T01:19:06.040Z,20.19
2016-12-13T01:20:06.019Z,20.25
2016-12-13T01:21:05.691Z,20.19
2016-12-13T01:22:05.675Z,20.19
2016-12-13T01:23:05.976Z,20.17
2016-12-13T01:24:05.958Z,20.23
2016-12-13T01:25:05.949Z,20.25
2016-12-13T01:26:05.930Z,20.23
2016-12-13T01:27:05.911Z,20.23
2016-12-13T01:28:05.894Z,20.19
2016-12-13T01:29:05.565Z,20.17
2016-12-13T01:30:05.861Z,20.19
2016-12-13T01:31:05.840Z,20.17
2016-12-13T01:32:05.829Z,20.17
2016-12-13T01:33:05.500Z,20.13
2016-12-13T01:34:05.800Z,20.22
2016-12-13T01:35:05.467Z,20.2
2016-12-13T01:36:05.760Z,20.22
2016-12-13T01:37:05.750Z,20.22
2016-12-13T01:38:05.727Z,20.15
2016-12-13T01:39:05.398Z,20.17
2016-12-13T01:40:05.379Z,20.16
2016-12-13T01:41:05.682Z,20.16
2016-12-13T01:42:05.353Z,20.08
2016-12-13T01:43:05.335Z,20.1
2016-12-13T01:44:05.630Z,20.1
2016-12-13T01:45:05.621Z,20.07
2016-12-13T01:46:05.600Z,20.05
2016-12-13T01:47:05.265Z,20.12
2016-12-13T01:48:05.564Z,20.13
2016-12-13T01:49:05.554Z,20.05
2016-12-13T01:50:05.538Z,20.05
2016-12-13T01:51:05.552Z,20.2
2016-12-13T01:52:05.189Z,20.12
2016-12-13T01:53:05.486Z,20.1
2016-12-13T01:54:05.162Z,20.2
2016-12-13T01:55:05.451Z,20.15
2016-12-13T01:56:05.442Z,20.1
2016-12-13T01:57:05.419Z,20.15
2016-12-13T01:58:05.402Z,20.12
2016-12-13T01:59:05.382Z,20.08
2016-12-13T02:00:05.371Z,20.12
2016-12-13T02:01:05.355Z,20.07
2016-12-13T02:02:05.023Z,20.05
2016-12-13T02:03:05.328Z,20.04
2016-12-13T02:04:04.674Z,20.12
2016-12-13T02:05:04.979Z,19.98
2016-12-13T02:06:04.954Z,20.1
2016-12-13T02:07:04.940Z,19.97
2016-12-13T02:08:04.925Z,20
2016-12-13T02:09:04.908Z,20.05
2016-12-13T02:10:04.894Z,19.97
2016-12-13T02:11:04.877Z,19.94
2016-12-13T02:12:05.178Z,20.05
2016-12-13T02:13:05.194Z,20.02
2016-12-13T02:14:05.140Z,19.95
2016-12-13T02:15:05.129Z,20.05
2016-12-13T02:16:05.117Z,19.92
2016-12-13T02:17:05.090Z,19.97
2016-12-13T02:18:05.077Z,19.97
2016-12-13T02:19:04.740Z,19.94
2016-12-13T02:20:04.729Z,19.92
2016-12-13T02:21:04.709Z,19.98
2016-12-13T02:22:05.012Z,19.94
2016-12-13T02:23:04.994Z,19.94
2016-12-13T02:24:04.986Z,20.02
2016-12-13T02:25:04.965Z,19.95
2016-12-13T02:26:04.631Z,19.95
2016-12-13T02:27:04.925Z,19.95
2016-12-13T02:28:04.917Z,19.95
2016-12-13T02:29:04.579Z,19.97
2016-12-13T02:30:04.883Z,19.98
2016-12-13T02:31:04.547Z,19.98
2016-12-13T02:32:04.536Z,19.98
2016-12-13T02:33:04.867Z,19.92
2016-12-13T02:34:04.496Z,20.01
2016-12-13T02:35:04.479Z,19.85
2016-12-13T02:36:04.785Z,19.95
2016-12-13T02:37:04.760Z,19.92
2016-12-13T02:38:04.744Z,20.01
2016-12-13T02:39:04.726Z,19.92
2016-12-13T02:40:04.714Z,19.9
2016-12-13T02:41:04.383Z,19.98
2016-12-13T02:42:04.364Z,19.95
2016-12-13T02:43:04.667Z,19.95
2016-12-13T02:44:04.647Z,19.95
2016-12-13T02:45:04.632Z,19.92
2016-12-13T02:46:04.617Z,19.94
2016-12-13T02:47:04.596Z,19.9
2016-12-13T02:48:04.583Z,19.95
2016-12-13T02:49:04.571Z,19.97
2016-12-13T02:50:04.550Z,19.95
2016-12-13T02:51:04.531Z,19.94
2016-12-13T02:52:04.517Z,19.86
2016-12-13T02:53:04.526Z,19.89
2016-12-13T02:54:04.494Z,19.86
2016-12-13T02:55:04.160Z,19.85
2016-12-13T02:56:04.451Z,19.98
2016-12-13T02:57:04.426Z,19.85
2016-12-13T02:58:04.421Z,19.79
2016-12-13T02:59:04.401Z,19.86
2016-12-13T03:00:04.386Z,19.85
2016-12-13T03:01:04.369Z,19.82
2016-12-13T03:02:04.352Z,19.82
2016-12-13T03:03:03.708Z,19.9
2016-12-13T03:04:04.321Z,19.85
2016-12-13T03:05:04.303Z,19.89
2016-12-13T03:06:03.979Z,19.85
2016-12-13T03:07:03.642Z,19.82
2016-12-13T03:08:03.622Z,19.85
2016-12-13T03:09:04.236Z,19.85
2016-12-13T03:10:04.222Z,19.82
2016-12-13T03:11:03.604Z,19.86
2016-12-13T03:12:03.875Z,19.89
2016-12-13T03:13:03.857Z,19.83
2016-12-13T03:14:03.841Z,19.86
2016-12-13T03:15:03.830Z,19.82
2016-12-13T03:16:03.492Z,19.82
2016-12-13T03:17:04.109Z,19.87
2016-12-13T03:18:03.782Z,19.85
2016-12-13T03:19:03.439Z,19.89
2016-12-13T03:20:04.056Z,19.79
2016-12-13T03:21:04.041Z,19.86
2016-12-13T03:22:03.397Z,19.92
2016-12-13T03:23:04.007Z,19.86
2016-12-13T03:24:03.987Z,19.87
2016-12-13T03:25:03.972Z,19.83
2016-12-13T03:26:03.326Z,19.87
2016-12-13T03:27:03.624Z,19.79
2016-12-13T03:28:03.930Z,19.83
2016-12-13T03:29:03.907Z,19.8
2016-12-13T03:30:03.894Z,19.83
2016-12-13T03:31:03.876Z,19.8
2016-12-13T03:32:03.855Z,19.75
2016-12-13T03:33:03.530Z,19.8
2016-12-13T03:34:03.839Z,19.8
2016-12-13T03:35:03.810Z,19.83
2016-12-13T03:36:03.792Z,19.79
2016-12-13T03:37:03.459Z,19.89
2016-12-13T03:38:03.758Z,19.76
2016-12-13T03:39:03.746Z,19.8
2016-12-13T03:40:03.723Z,19.82
2016-12-13T03:41:03.711Z,19.79
2016-12-13T03:42:03.693Z,19.86
2016-12-13T03:43:03.359Z,19.78
2016-12-13T03:44:03.340Z,19.8
2016-12-13T03:45:03.639Z,19.86
2016-12-13T03:46:03.630Z,19.83
2016-12-13T03:47:03.613Z,19.75
2016-12-13T03:48:03.284Z,19.7
2016-12-13T03:49:03.576Z,19.79
2016-12-13T03:50:03.571Z,19.78
2016-12-13T03:51:03.544Z,19.8
2016-12-13T03:52:03.528Z,19.82
2016-12-13T03:53:03.511Z,19.79
2016-12-13T03:54:03.494Z,19.75
2016-12-13T03:55:03.475Z,19.75
2016-12-13T03:56:03.498Z,19.82
2016-12-13T03:57:03.124Z,19.76
2016-12-13T03:58:03.428Z,19.78
2016-12-13T03:59:03.412Z,19.72
2016-12-13T04:00:03.393Z,19.71
2016-12-13T04:01:03.384Z,19.78
2016-12-13T04:02:03.358Z,19.75
2016-12-13T04:03:03.346Z,19.79
2016-12-13T04:04:03.331Z,19.71
2016-12-13T04:05:03.310Z,19.71
2016-12-13T04:06:03.297Z,19.71
2016-12-13T04:07:03.278Z,19.68
2016-12-13T04:08:03.271Z,19.79
2016-12-13T04:09:02.933Z,19.76
2016-12-13T04:10:03.230Z,19.71
2016-12-13T04:11:03.211Z,19.8
2016-12-13T04:12:02.881Z,19.71
2016-12-13T04:13:03.177Z,19.71
2016-12-13T04:14:03.163Z,19.72
2016-12-13T04:15:03.145Z,19.71
2016-12-13T04:16:03.178Z,19.71
2016-12-13T04:17:03.113Z,19.71
2016-12-13T04:18:03.098Z,19.65
2016-12-13T04:19:02.760Z,19.71
2016-12-13T04:20:03.059Z,19.7
2016-12-13T04:21:03.048Z,19.67
2016-12-13T04:22:03.031Z,19.71
2016-12-13T04:23:03.009Z,19.72
2016-12-13T04:24:02.994Z,19.79
2016-12-13T04:25:02.980Z,19.72
2016-12-13T04:26:02.965Z,19.67
2016-12-13T04:27:02.944Z,19.7
2016-12-13T04:28:02.943Z,19.7
2016-12-13T04:29:02.598Z,19.68
2016-12-13T04:30:02.900Z,19.71
2016-12-13T04:31:02.877Z,19.75
2016-12-13T04:32:02.864Z,19.7
2016-12-13T04:33:02.527Z,19.75
2016-12-13T04:34:02.834Z,19.75
2016-12-13T04:35:02.494Z,19.71
2016-12-13T04:36:02.793Z,19.76
2016-12-13T04:37:02.783Z,19.83
2016-12-13T04:38:02.760Z,19.71
2016-12-13T04:39:02.751Z,19.72
2016-12-13T04:40:02.725Z,19.71
2016-12-13T04:41:02.709Z,19.68
2016-12-13T04:42:02.700Z,19.68
2016-12-13T04:43:02.678Z,19.78
2016-12-13T04:44:02.665Z,19.67
2016-12-13T04:45:02.648Z,19.75
2016-12-13T04:46:02.635Z,19.67
2016-12-13T04:47:02.614Z,19.71
2016-12-13T04:48:02.602Z,19.8
2016-12-13T04:49:02.577Z,19.71
2016-12-13T04:50:02.575Z,19.72
2016-12-13T04:51:02.576Z,19.72
2016-12-13T04:52:02.211Z,19.82
2016-12-13T04:53:02.516Z,19.67
2016-12-13T04:54:02.494Z,19.64
2016-12-13T04:55:02.175Z,19.71
2016-12-13T04:56:02.466Z,19.68
2016-12-13T04:57:02.453Z,19.65
2016-12-13T04:58:02.112Z,19.68
2016-12-13T04:59:02.099Z,19.64
2016-12-13T05:00:02.084Z,19.71
2016-12-13T05:01:02.385Z,19.68
2016-12-13T05:02:02.051Z,19.72
2016-12-13T05:03:02.346Z,19.7
2016-12-13T05:04:02.331Z,19.67
2016-12-13T05:05:02.315Z,19.68
2016-12-13T05:06:01.986Z,19.67
2016-12-13T05:07:02.280Z,19.72
2016-12-13T05:08:02.266Z,19.82
2016-12-13T05:09:02.240Z,19.9
2016-12-13T05:10:02.229Z,19.95
2016-12-13T05:11:02.214Z,20.12
2016-12-13T05:12:02.199Z,20.1
2016-12-13T05:13:02.182Z,20.23
2016-12-13T05:14:02.162Z,20.25
2016-12-13T05:15:02.151Z,20.25
2016-12-13T05:16:02.130Z,20.33
2016-12-13T05:17:02.119Z,20.42
2016-12-13T05:18:02.095Z,20.42
2016-12-13T05:19:01.454Z,20.51
2016-12-13T05:20:02.070Z,20.51
2016-12-13T05:21:01.732Z,20.53
2016-12-13T05:22:02.034Z,20.48
2016-12-13T05:23:01.385Z,20.58
2016-12-13T05:24:02.001Z,20.57
2016-12-13T05:25:01.979Z,20.68
2016-12-13T05:26:01.968Z,20.57
2016-12-13T05:27:01.634Z,20.64
2016-12-13T05:28:01.929Z,20.64
2016-12-13T05:29:01.918Z,20.66
2016-12-13T05:30:01.897Z,20.68
2016-12-13T05:31:01.576Z,20.66
2016-12-13T05:32:01.898Z,20.64
2016-12-13T05:33:01.853Z,20.71
2016-12-13T05:34:01.862Z,20.71
2016-12-13T05:35:01.825Z,20.64
2016-12-13T05:36:01.493Z,20.64
2016-12-13T05:37:01.480Z,20.71
2016-12-13T05:38:01.767Z,20.68
2016-12-13T05:39:01.753Z,20.64
2016-12-13T05:40:01.419Z,20.72
2016-12-13T05:41:01.717Z,20.69
2016-12-13T05:42:01.709Z,20.63
2016-12-13T05:43:01.369Z,20.68
2016-12-13T05:44:01.672Z,20.71
2016-12-13T05:45:01.657Z,20.72
2016-12-13T05:46:01.326Z,20.72
2016-12-13T05:47:01.314Z,20.73
2016-12-13T05:48:01.605Z,20.75
2016-12-13T05:49:01.588Z,20.75
2016-12-13T05:50:01.259Z,20.72
2016-12-13T05:51:01.253Z,20.72
2016-12-13T05:52:01.226Z,20.73
2016-12-13T05:53:01.524Z,20.79
2016-12-13T05:54:01.506Z,20.73
2016-12-13T05:55:01.493Z,20.78
2016-12-13T05:56:01.474Z,20.76
2016-12-13T05:57:01.143Z,20.75
2016-12-13T05:58:01.137Z,20.82
2016-12-13T05:59:01.422Z,20.83
2016-12-13T06:00:01.413Z,20.78
2016-12-13T06:01:01.396Z,20.82
2016-12-13T06:02:01.376Z,20.75
2016-12-13T06:03:01.053Z,20.79
2016-12-13T06:04:01.344Z,20.82
2016-12-13T06:05:01.016Z,20.82
2016-12-13T06:06:01.316Z,20.81
2016-12-13T06:07:01.296Z,20.91
2016-12-13T06:08:01.277Z,20.88
2016-12-13T06:09:01.265Z,20.9
2016-12-13T06:10:01.254Z,20.87
2016-12-13T06:11:00.915Z,20.93
2016-12-13T06:12:01.227Z,20.88
2016-12-13T06:13:01.220Z,20.79
2016-12-13T06:14:01.183Z,20.83
2016-12-13T06:15:00.850Z,20.88
2016-12-13T06:16:01.147Z,20.81
2016-12-13T06:17:01.138Z,20.78
2016-12-13T06:18:01.121Z,20.87
2016-12-13T06:19:00.785Z,20.81
2016-12-13T06:20:00.776Z,20.75
2016-12-13T06:21:00.753Z,20.76
2016-12-13T06:22:01.053Z,20.71
2016-12-13T06:23:01.034Z,20.78
2016-12-13T06:24:00.707Z,20.6
2016-12-13T06:25:01.023Z,20.72
2016-12-13T06:26:00.675Z,20.68
2016-12-13T06:27:00.969Z,20.75
2016-12-13T06:28:00.960Z,20.78
2016-12-13T06:29:00.938Z,20.83
2016-12-13T06:30:00.926Z,20.81
2016-12-13T06:31:00.591Z,20.87
2016-12-13T06:32:00.577Z,20.93
2016-12-13T06:33:00.561Z,20.85
2016-12-13T06:34:00.871Z,20.87
2016-12-13T06:35:00.844Z,20.83
2016-12-13T06:36:00.835Z,20.97
2016-12-13T06:37:00.501Z,20.83
2016-12-13T06:38:00.796Z,20.87
2016-12-13T06:39:00.461Z,20.93
2016-12-13T06:40:00.786Z,20.98
2016-12-13T06:41:00.747Z,20.85
2016-12-13T06:42:00.735Z,20.91
2016-12-13T06:43:00.724Z,20.88
2016-12-13T06:44:00.697Z,20.93
2016-12-13T06:45:00.686Z,20.97
2016-12-13T06:46:00.036Z,20.96
2016-12-13T06:47:00.650Z,20.93
2016-12-13T06:48:00.634Z,21.01
2016-12-13T06:49:00.622Z,20.98
2016-12-13T06:50:00.604Z,21.01
2016-12-13T06:51:00.271Z,21
2016-12-13T06:52:00.569Z,20.97
2016-12-13T06:53:00.237Z,20.97
2016-12-13T06:54:00.538Z,21.01
2016-12-13T06:55:00.456Z,21
2016-12-13T06:56:00.503Z,20.98
2016-12-13T06:57:00.489Z,21.01
2016-12-13T06:58:00.480Z,21.05
2016-12-13T06:59:00.456Z,20.98
2016-12-13T07:00:00.446Z,20.93
2016-12-13T07:01:00.426Z,21.01
2016-12-13T07:02:00.405Z,21.05
2016-12-13T07:03:00.392Z,20.97
2016-12-13T07:04:00.376Z,20.97
2016-12-13T07:05:00.358Z,20.96
2016-12-13T07:06:00.030Z,20.96
2016-12-13T07:07:00.015Z,20.93
2016-12-13T07:08:00.310Z,20.94
2016-12-13T07:09:00.301Z,20.91
2016-12-13T07:10:00.279Z,20.96
2016-12-13T07:10:59.952Z,20.94
2016-12-13T07:11:59.933Z,20.94
2016-12-13T07:13:00.268Z,20.88
2016-12-13T07:13:59.899Z,20.91
2016-12-13T07:15:00.202Z,20.93
2016-12-13T07:16:00.182Z,20.87
2016-12-13T07:16:59.853Z,20.93
2016-12-13T07:18:00.154Z,21.05
2016-12-13T07:19:00.137Z,20.97
2016-12-13T07:19:59.805Z,21
2016-12-13T07:21:00.104Z,21.05
2016-12-13T07:21:59.769Z,20.98
2016-12-13T07:23:00.074Z,21
2016-12-13T07:24:00.062Z,21
2016-12-13T07:25:00.040Z,20.98
2016-12-13T07:26:00.024Z,21.01
2016-12-13T07:26:59.695Z,21.03
2016-12-13T07:27:59.676Z,21.03
2016-12-13T07:28:59.977Z,20.98
2016-12-13T07:29:59.966Z,21.06
2016-12-13T07:30:59.946Z,21
2016-12-13T07:31:59.931Z,20.98
2016-12-13T07:32:59.598Z,21.09
2016-12-13T07:33:59.899Z,21.05
2016-12-13T07:34:59.883Z,21.13
2016-12-13T07:35:59.553Z,21.06
2016-12-13T07:36:59.867Z,21.01
2016-12-13T07:37:59.830Z,21.13
2016-12-13T07:38:59.503Z,21.15
2016-12-13T07:39:59.798Z,21.08
2016-12-13T07:40:59.786Z,21.06
2016-12-13T07:41:59.143Z,21.16
2016-12-13T07:42:59.434Z,21.12
2016-12-13T07:43:59.735Z,20.87
2016-12-13T07:44:59.406Z,20.01
2016-12-13T07:45:59.711Z,19.27
2016-12-13T07:46:59.379Z,19.27
2016-12-13T07:47:59.676Z,19.76
2016-12-13T07:48:59.661Z,20.12
2016-12-13T07:49:59.328Z,20.4
2016-12-13T07:50:59.624Z,20.57
2016-12-13T07:51:59.619Z,20.71
2016-12-13T07:52:59.600Z,20.85
2016-12-13T07:53:59.269Z,20.82
2016-12-13T07:54:59.570Z,20.87
2016-12-13T07:55:59.552Z,20.87
2016-12-13T07:56:59.531Z,20.96
2016-12-13T07:57:59.520Z,20.9
2016-12-13T07:58:59.186Z,20.94
2016-12-13T07:59:59.169Z,20.98
2016-12-13T08:00:59.474Z,21.05
2016-12-13T08:01:59.457Z,21
2016-12-13T08:02:59.442Z,21.05
2016-12-13T08:03:59.418Z,21.06
2016-12-13T08:04:59.413Z,20.98
2016-12-13T08:05:59.396Z,21.05
2016-12-13T08:06:59.376Z,21.01
2016-12-13T08:07:59.357Z,20.96
2016-12-13T08:08:59.022Z,21
2016-12-13T08:09:59.326Z,21.03
2016-12-13T08:10:58.991Z,21.06
2016-12-13T08:11:59.290Z,21.13
2016-12-13T08:12:59.281Z,21.03
2016-12-13T08:13:58.946Z,21.06
2016-12-13T08:14:59.246Z,21.03
2016-12-13T08:15:59.225Z,21.11
2016-12-13T08:16:59.216Z,21.13
2016-12-13T08:17:59.196Z,21.11
2016-12-13T08:18:59.187Z,21.09
2016-12-13T08:19:58.848Z,21.13
2016-12-13T08:20:59.149Z,21.16
2016-12-13T08:21:59.140Z,21.16
2016-12-13T08:22:59.120Z,21.08
2016-12-13T08:23:59.103Z,21.12
2016-12-13T08:24:58.771Z,21.11
2016-12-13T08:25:59.068Z,21.09
2016-12-13T08:26:58.425Z,21.12
2016-12-13T08:27:59.046Z,21.13
2016-12-13T08:28:59.019Z,21.12
2016-12-13T08:29:59.019Z,21.16
2016-12-13T08:30:58.988Z,21.18
2016-12-13T08:31:58.976Z,21.12
2016-12-13T08:32:58.644Z,21.15
2016-12-13T08:33:58.939Z,21.15
2016-12-13T08:34:58.924Z,21.06
2016-12-13T08:35:58.912Z,21.13
2016-12-13T08:36:58.897Z,21.15
2016-12-13T08:37:58.878Z,21.12
2016-12-13T08:38:58.545Z,21.13
2016-12-13T08:39:58.853Z,21.15
2016-12-13T08:40:58.828Z,21.11
2016-12-13T08:41:58.815Z,21.16
2016-12-13T08:42:58.814Z,21.19
2016-12-13T08:43:58.780Z,21.21
2016-12-13T08:44:58.445Z,21.12
2016-12-13T08:45:58.753Z,21.15
2016-12-13T08:46:58.733Z,21.12
2016-12-13T08:47:58.722Z,21.08
2016-12-13T08:48:58.703Z,21.15
2016-12-13T08:49:58.723Z,21.11
2016-12-13T08:50:58.670Z,21.15
2016-12-13T08:51:58.653Z,21.09
2016-12-13T08:52:58.336Z,21.09
2016-12-13T08:53:58.628Z,21.16
2016-12-13T08:54:58.611Z,21.15
2016-12-13T08:55:58.642Z,21.13
2016-12-13T08:56:58.578Z,21.11
2016-12-13T08:57:58.250Z,21.13
2016-12-13T08:58:58.540Z,21.12
2016-12-13T08:59:58.535Z,21.15
2016-12-13T09:00:58.510Z,21.18
2016-12-13T09:01:58.504Z,21.12
2016-12-13T09:02:58.480Z,21.11
2016-12-13T09:03:58.466Z,21.15
2016-12-13T09:04:58.448Z,21.24
2016-12-13T09:05:58.432Z,21.3
2016-12-13T09:06:58.424Z,21.3
2016-12-13T09:07:58.401Z,21.21
2016-12-13T09:08:58.386Z,21.24
2016-12-13T09:09:58.371Z,21.21
2016-12-13T09:10:58.360Z,21.28
2016-12-13T09:11:58.337Z,21.27
2016-12-13T09:12:58.328Z,21.24
2016-12-13T09:13:58.307Z,21.22
2016-12-13T09:14:58.297Z,21.26
2016-12-13T09:15:57.956Z,21.27
2016-12-13T09:16:58.261Z,21.22
2016-12-13T09:17:57.968Z,21.31
2016-12-13T09:18:57.911Z,21.24
2016-12-13T09:19:58.220Z,21.21
2016-12-13T09:20:58.198Z,21.27
2016-12-13T09:21:57.863Z,21.26
2016-12-13T09:22:58.165Z,21.22
2016-12-13T09:23:58.145Z,21.21
2016-12-13T09:24:57.867Z,21.19
2016-12-13T09:25:58.112Z,21.24
2016-12-13T09:26:58.102Z,21.22
2016-12-13T09:27:58.091Z,21.19
2016-12-13T09:28:57.785Z,21.33
2016-12-13T09:29:58.064Z,21.3
2016-12-13T09:30:58.034Z,21.3
2016-12-13T09:31:57.709Z,21.3
2016-12-13T09:32:58.005Z,21.27
2016-12-13T09:33:57.992Z,21.28
2016-12-13T09:34:57.976Z,21.28
2016-12-13T09:35:57.968Z,21.28
2016-12-13T09:36:57.943Z,21.21
2016-12-13T09:37:57.925Z,21.19
2016-12-13T09:38:57.592Z,21.19
2016-12-13T09:39:57.580Z,21.24
2016-12-13T09:40:57.884Z,21.21
2016-12-13T09:41:57.233Z,21.28
2016-12-13T09:42:57.850Z,21.26
2016-12-13T09:43:57.520Z,21.26
2016-12-13T09:44:57.823Z,21.13
2016-12-13T09:45:57.800Z,21.26
2016-12-13T09:46:57.787Z,21.19
2016-12-13T09:47:57.770Z,21.27
2016-12-13T09:48:57.444Z,21.26
2016-12-13T09:49:57.745Z,21.21
2016-12-13T09:50:57.717Z,21.19
2016-12-13T09:51:57.706Z,21.26
2016-12-13T09:52:57.692Z,21.22
2016-12-13T09:53:57.680Z,21.27
2016-12-13T09:54:57.661Z,21.24
2016-12-13T09:56:21.745Z,21.24
2016-12-13T09:56:57.318Z,21.19
2016-12-13T09:57:57.613Z,21.27
2016-12-13T09:58:57.594Z,21.3
2016-12-13T09:59:57.582Z,21.26
2016-12-13T10:00:57.561Z,21.28
2016-12-13T10:01:57.550Z,21.19
2016-12-13T10:02:57.221Z,21.28
2016-12-13T10:03:57.538Z,21.24
2016-12-13T10:04:57.501Z,21.3
2016-12-13T10:05:57.489Z,21.28
2016-12-13T10:06:57.152Z,21.3
2016-12-13T10:07:57.461Z,21.3
2016-12-13T10:08:56.808Z,21.26
2016-12-13T10:09:57.435Z,21.21
2016-12-13T10:10:57.413Z,21.21
2016-12-13T10:11:56.758Z,21.26
2016-12-13T10:12:57.381Z,21.27
2016-12-13T10:13:57.358Z,21.24
2016-12-13T10:14:57.033Z,21.24
2016-12-13T10:15:57.013Z,21.15
2016-12-13T10:16:57.313Z,21.27
2016-12-13T10:17:57.299Z,21.26
2016-12-13T10:18:57.279Z,21.27
2016-12-13T10:19:57.289Z,21.31
2016-12-13T10:20:56.936Z,21.26
2016-12-13T10:21:56.916Z,21.3
2016-12-13T10:22:57.220Z,21.33
2016-12-13T10:23:56.570Z,21.33
2016-12-13T10:24:57.189Z,21.22
2016-12-13T10:25:56.861Z,21.26
2016-12-13T10:26:57.162Z,21.19
2016-12-13T10:27:57.142Z,21.26
2016-12-13T10:28:56.494Z,21.24
2016-12-13T10:29:57.117Z,21.28
2016-12-13T10:30:57.095Z,21.26
2016-12-13T10:31:57.076Z,21.24
2016-12-13T10:32:57.061Z,21.26
2016-12-13T10:33:56.728Z,21.3
2016-12-13T10:34:56.742Z,21.24
2016-12-13T10:35:56.702Z,21.31
2016-12-13T10:36:57.005Z,21.22
2016-12-13T10:37:56.979Z,21.27
2016-12-13T10:38:56.650Z,21.26
2016-12-13T10:39:56.957Z,21.22
2016-12-13T10:40:56.940Z,21.31
2016-12-13T10:41:56.918Z,21.36
2016-12-13T10:42:56.906Z,21.36
2016-12-13T10:43:56.888Z,21.31
2016-12-13T10:44:56.897Z,21.28
2016-12-13T10:45:56.860Z,21.31
2016-12-13T10:46:56.840Z,21.38
2016-12-13T10:47:56.825Z,21.31
2016-12-13T10:48:56.810Z,21.38
2016-12-13T10:49:56.788Z,21.4
2016-12-13T10:50:56.459Z,21.37
2016-12-13T10:51:56.772Z,21.28
2016-12-13T10:52:56.967Z,21.3
2016-12-13T10:53:56.414Z,21.37
2016-12-13T10:54:56.397Z,21.31
2016-12-13T10:55:56.695Z,21.4
2016-12-13T10:56:56.682Z,21.43
2016-12-13T10:57:56.355Z,21.43
2016-12-13T10:58:56.648Z,21.38
2016-12-13T10:59:56.639Z,21.34
2016-12-13T11:00:56.625Z,21.4
2016-12-13T11:01:56.294Z,21.36
2016-12-13T11:02:56.595Z,21.34
2016-12-13T11:03:56.574Z,21.34
2016-12-13T11:04:56.559Z,21.34
2016-12-13T11:05:56.232Z,21.34
2016-12-13T11:06:56.208Z,21.37
2016-12-13T11:07:56.196Z,21.37
2016-12-13T11:08:56.494Z,21.37
2016-12-13T11:09:56.483Z,21.36
2016-12-13T11:10:56.147Z,21.43
2016-12-13T11:11:55.812Z,21.38
2016-12-13T11:12:56.117Z,21.4
2016-12-13T11:13:56.423Z,21.4
2016-12-13T11:14:56.402Z,21.38
2016-12-13T11:15:56.394Z,21.36
2016-12-13T11:16:56.375Z,21.4
2016-12-13T11:17:56.356Z,21.4
2016-12-13T11:18:56.378Z,21.37
2016-12-13T11:19:56.004Z,21.34
2016-12-13T11:20:56.314Z,21.34
2016-12-13T11:21:56.298Z,21.34
2016-12-13T11:22:55.959Z,21.38
2016-12-13T11:23:56.262Z,21.45
2016-12-13T11:24:56.245Z,21.4
2016-12-13T11:25:55.912Z,21.4
2016-12-13T11:26:55.900Z,21.45
2016-12-13T11:27:56.208Z,21.42
2016-12-13T11:28:56.188Z,21.38
2016-12-13T11:29:56.163Z,21.34
2016-12-13T11:30:55.838Z,21.43
2016-12-13T11:31:55.816Z,21.4
2016-12-13T11:32:55.800Z,21.31
2016-12-13T11:33:56.108Z,21.28
2016-12-13T11:34:55.774Z,21.36
2016-12-13T11:35:56.070Z,21.36
2016-12-13T11:36:56.063Z,21.24
2016-12-13T11:37:56.040Z,21.22
2016-12-13T11:38:56.028Z,21.3
2016-12-13T11:39:56.007Z,21.26
2016-12-13T11:40:55.999Z,21.28
2016-12-13T11:41:55.981Z,21.26
2016-12-13T11:42:55.969Z,21.24
2016-12-13T11:43:55.946Z,21.28
2016-12-13T11:44:55.615Z,21.26
2016-12-13T11:45:55.600Z,21.33
2016-12-13T11:46:55.903Z,21.33
2016-12-13T11:47:55.566Z,21.24
2016-12-13T11:48:55.876Z,21.27
2016-12-13T11:49:55.533Z,21.19
2016-12-13T11:50:55.830Z,21.24
2016-12-13T11:51:55.507Z,21.26
2016-12-13T11:52:55.797Z,21.31
2016-12-13T11:53:55.788Z,21.33
2016-12-13T11:54:55.769Z,21.26
2016-12-13T11:55:55.762Z,21.4
2016-12-13T11:56:55.428Z,21.26
2016-12-13T11:57:55.727Z,21.33
2016-12-13T11:58:55.390Z,21.38
2016-12-13T11:59:55.695Z,21.27
2016-12-13T12:00:55.676Z,21.18
2016-12-13T12:01:55.343Z,21.26
2016-12-13T12:02:55.655Z,21.26
2016-12-13T12:03:55.638Z,21.19
2016-12-13T12:04:55.616Z,21.28
2016-12-13T12:05:55.598Z,21.26
2016-12-13T12:06:55.264Z,21.22
2016-12-13T12:07:55.568Z,21.24
2016-12-13T12:08:55.247Z,21.24
2016-12-13T12:09:55.534Z,21.24
2016-12-13T12:10:55.522Z,21.19
2016-12-13T12:11:55.509Z,21.28
2016-12-13T12:12:55.180Z,21.21
2016-12-13T12:13:56.429Z,21.19
2016-12-13T12:14:55.462Z,21.22
2016-12-13T12:15:55.442Z,21.27
2016-12-13T12:16:55.431Z,21.3
2016-12-13T12:17:55.447Z,21.28
2016-12-13T12:18:55.092Z,21.27
2016-12-13T12:19:55.381Z,21.34
2016-12-13T12:20:55.366Z,21.27
2016-12-13T12:21:54.716Z,21.19
2016-12-13T12:22:55.333Z,21.27
2016-12-13T12:23:54.999Z,21.26
2016-12-13T12:24:55.303Z,21.26
2016-12-13T12:25:55.286Z,21.26
2016-12-13T12:26:54.643Z,21.28
2016-12-13T12:27:55.251Z,21.33
2016-12-13T12:28:55.242Z,21.36
2016-12-13T12:29:54.905Z,21.34
2016-12-13T12:30:55.240Z,21.33
2016-12-13T12:31:55.195Z,21.36
2016-12-13T12:32:55.175Z,21.31
2016-12-13T12:33:55.163Z,21.3
2016-12-13T12:34:55.144Z,21.37
2016-12-13T12:35:55.129Z,21.37
2016-12-13T12:36:55.112Z,21.31
2016-12-13T12:37:55.126Z,21.4
2016-12-13T12:38:55.087Z,21.37
2016-12-13T12:39:55.064Z,21.33
2016-12-13T12:40:55.052Z,21.26
2016-12-13T12:41:54.723Z,21.26
2016-12-13T12:42:55.028Z,21.22
2016-12-13T12:43:55.010Z,21.27
2016-12-13T12:44:54.676Z,21.28
2016-12-13T12:45:54.972Z,21.31
2016-12-13T12:46:54.955Z,21.3
2016-12-13T12:47:54.943Z,21.3
2016-12-13T12:48:54.926Z,21.22
2016-12-13T12:49:54.912Z,21.19
2016-12-13T12:50:54.897Z,21.24
2016-12-13T12:51:54.562Z,21.28
2016-12-13T12:52:54.863Z,21.26
2016-12-13T12:53:54.536Z,21.28
2016-12-13T12:54:54.832Z,21.3